sensor_id;sensor_type;location;lat;lon;timestamp;pressure;altitude;pressure_sealevel;temperature;humidity
8253;BME280;61313;48.396;10.008;2023-04-05T00:00:53;96656.16;;;3.21;47.31
8253;BME280;61313;48.396;10.008;2023-04-05T00:03:19;96657.94;;;3.17;47.33
8253;BME280;61313;48.396;10.008;2023-04-05T00:05:44;96648.41;;;3.20;47.41
8253;BME280;61313;48.396;10.008;2023-04-05T00:08:10;96658.75;;;3.23;47.04
8253;BME280;61313;48.396;10.008;2023-04-05T00:10:48;96651.06;;;3.15;47.21
8253;BME280;61313;48.396;10.008;2023-04-05T00:13:14;96642.44;;;3.13;47.18
8253;BME280;61313;48.396;10.008;2023-04-05T00:15:40;96649.53;;;2.95;47.24
8253;BME280;61313;48.396;10.008;2023-04-05T00:18:05;96651.16;;;3.04;47.06
8253;BME280;61313;48.396;10.008;2023-04-05T00:20:31;96641.84;;;2.85;47.58
8253;BME280;61313;48.396;10.008;2023-04-05T00:22:58;96639.97;;;2.99;47.82
8253;BME280;61313;48.396;10.008;2023-04-05T00:25:24;96638.19;;;3.07;47.51
8253;BME280;61313;48.396;10.008;2023-04-05T00:27:50;96629.41;;;3.16;47.56
8253;BME280;61313;48.396;10.008;2023-04-05T00:30:16;96627.81;;;3.07;47.67
8253;BME280;61313;48.396;10.008;2023-04-05T00:32:48;96628.72;;;3.02;47.95
8253;BME280;61313;48.396;10.008;2023-04-05T00:35:14;96628.75;;;2.97;47.96
8253;BME280;61313;48.396;10.008;2023-04-05T00:37:40;96621.97;;;2.85;48.57
8253;BME280;61313;48.396;10.008;2023-04-05T00:40:06;96630.63;;;2.84;48.75
8253;BME280;61313;48.396;10.008;2023-04-05T00:42:31;96621.78;;;3.05;48.43
8253;BME280;61313;48.396;10.008;2023-04-05T00:44:57;96626.13;;;3.03;47.90
8253;BME280;61313;48.396;10.008;2023-04-05T00:47:22;96630.41;;;3.07;47.80
8253;BME280;61313;48.396;10.008;2023-04-05T00:49:48;96624.28;;;3.11;48.05
8253;BME280;61313;48.396;10.008;2023-04-05T00:52:14;96626.03;;;3.09;47.92
8253;BME280;61313;48.396;10.008;2023-04-05T00:54:40;96619.09;;;3.14;48.07
8253;BME280;61313;48.396;10.008;2023-04-05T00:57:07;96624.13;;;3.27;47.34
8253;BME280;61313;48.396;10.008;2023-04-05T00:59:33;96618.25;;;3.11;47.48
8253;BME280;61313;48.396;10.008;2023-04-05T01:02:09;96614.81;;;3.10;47.48
8253;BME280;61313;48.396;10.008;2023-04-05T01:04:40;96609.72;;;3.03;47.92
8253;BME280;61313;48.396;10.008;2023-04-05T01:07:19;96600.19;;;3.03;48.06
8253;BME280;61313;48.396;10.008;2023-04-05T01:09:58;96601.88;;;3.07;47.71
8253;BME280;61313;48.396;10.008;2023-04-05T01:12:29;96599.50;;;2.87;48.15
8253;BME280;61313;48.396;10.008;2023-04-05T01:15:00;96604.81;;;2.75;48.69
8253;BME280;61313;48.396;10.008;2023-04-05T01:17:26;96595.19;;;2.85;48.25
8253;BME280;61313;48.396;10.008;2023-04-05T01:19:58;96596.94;;;2.83;48.40
8253;BME280;61313;48.396;10.008;2023-04-05T01:37:11;96583.28;;;2.68;48.00
8253;BME280;61313;48.396;10.008;2023-04-05T01:39:37;96573.72;;;2.75;48.14
8253;BME280;61313;48.396;10.008;2023-04-05T01:42:03;96576.31;;;2.73;47.88
8253;BME280;61313;48.396;10.008;2023-04-05T01:44:29;96577.25;;;2.66;47.55
8253;BME280;61313;48.396;10.008;2023-04-05T01:46:55;96579.78;;;2.72;47.91
8253;BME280;61313;48.396;10.008;2023-04-05T01:49:21;96572.00;;;2.71;47.89
8253;BME280;61313;48.396;10.008;2023-04-05T01:51:47;96576.38;;;2.66;47.75
8253;BME280;61313;48.396;10.008;2023-04-05T01:54:12;96572.06;;;2.66;48.09
8253;BME280;61313;48.396;10.008;2023-04-05T01:56:37;96567.72;;;2.70;47.56
8253;BME280;61313;48.396;10.008;2023-04-05T01:59:03;96565.97;;;2.69;48.13
8253;BME280;61313;48.396;10.008;2023-04-05T02:01:28;96574.66;;;2.66;47.92
8253;BME280;61313;48.396;10.008;2023-04-05T02:03:54;96572.91;;;2.68;48.54
8253;BME280;61313;48.396;10.008;2023-04-05T02:06:19;96572.19;;;2.52;48.49
8253;BME280;61313;48.396;10.008;2023-04-05T02:08:44;96563.59;;;2.47;48.50
8253;BME280;61313;48.396;10.008;2023-04-05T02:11:10;96570.44;;;2.54;48.45
8253;BME280;61313;48.396;10.008;2023-04-05T02:13:35;96568.66;;;2.60;48.18
8253;BME280;61313;48.396;10.008;2023-04-05T02:16:01;96566.16;;;2.52;48.30
8253;BME280;61313;48.396;10.008;2023-04-05T02:18:26;96560.88;;;2.61;48.16
8253;BME280;61313;48.396;10.008;2023-04-05T02:21:06;96561.94;;;2.42;48.79
8253;BME280;61313;48.396;10.008;2023-04-05T02:23:32;96555.91;;;2.41;48.46
8253;BME280;61313;48.396;10.008;2023-04-05T02:25:58;96555.88;;;2.43;49.06
8253;BME280;61313;48.396;10.008;2023-04-05T02:28:24;96550.81;;;2.32;48.89
8253;BME280;61313;48.396;10.008;2023-04-05T02:30:53;96556.03;;;2.27;49.31
8253;BME280;61313;48.396;10.008;2023-04-05T02:33:18;96553.28;;;2.46;48.61
8253;BME280;61313;48.396;10.008;2023-04-05T02:35:47;96548.97;;;2.45;48.85
8253;BME280;61313;48.396;10.008;2023-04-05T02:38:13;96541.09;;;2.54;48.18
8253;BME280;61313;48.396;10.008;2023-04-05T02:40:38;96542.97;;;2.41;49.34
8253;BME280;61313;48.396;10.008;2023-04-05T02:43:06;96531.84;;;2.28;49.30
8253;BME280;61313;48.396;10.008;2023-04-05T02:45:31;96533.53;;;2.34;49.05
8253;BME280;61313;48.396;10.008;2023-04-05T02:47:57;96537.84;;;2.35;49.37
8253;BME280;61313;48.396;10.008;2023-04-05T02:50:22;96532.66;;;2.37;48.91
8253;BME280;61313;48.396;10.008;2023-04-05T02:52:48;96529.25;;;2.28;49.89
8253;BME280;61313;48.396;10.008;2023-04-05T02:55:14;96526.75;;;2.19;49.30
8253;BME280;61313;48.396;10.008;2023-04-05T02:57:43;96532.66;;;2.33;49.13
8253;BME280;61313;48.396;10.008;2023-04-05T03:00:12;96529.41;;;2.10;49.26
8253;BME280;61313;48.396;10.008;2023-04-05T03:02:38;96528.44;;;2.22;49.42
8253;BME280;61313;48.396;10.008;2023-04-05T03:05:07;96519.88;;;2.20;49.56
8253;BME280;61313;48.396;10.008;2023-04-05T03:07:36;96518.09;;;2.23;49.03
8253;BME280;61313;48.396;10.008;2023-04-05T03:10:02;96523.31;;;2.20;48.85
8253;BME280;61313;48.396;10.008;2023-04-05T03:12:29;96522.38;;;2.26;48.64
8253;BME280;61313;48.396;10.008;2023-04-05T03:14:54;96519.94;;;2.09;49.67
8253;BME280;61313;48.396;10.008;2023-04-05T03:17:20;96519.13;;;2.02;49.52
8253;BME280;61313;48.396;10.008;2023-04-05T03:19:45;96519.16;;;1.98;49.68
8253;BME280;61313;48.396;10.008;2023-04-05T03:22:11;96516.63;;;1.95;49.51
8253;BME280;61313;48.396;10.008;2023-04-05T03:24:36;96511.47;;;1.88;50.15
8253;BME280;61313;48.396;10.008;2023-04-05T03:27:02;96521.66;;;2.13;49.70
8253;BME280;61313;48.396;10.008;2023-04-05T03:29:30;96526.97;;;1.93;50.26
8253;BME280;61313;48.396;10.008;2023-04-05T03:31:59;96519.09;;;2.05;49.62
8253;BME280;61313;48.396;10.008;2023-04-05T03:34:24;96515.63;;;2.09;49.93
8253;BME280;61313;48.396;10.008;2023-04-05T03:36:54;96515.81;;;1.89;49.75
8253;BME280;61313;48.396;10.008;2023-04-05T03:39:20;96519.09;;;2.08;49.51
8253;BME280;61313;48.396;10.008;2023-04-05T03:41:45;96516.59;;;1.98;49.61
8253;BME280;61313;48.396;10.008;2023-04-05T03:44:11;96514.84;;;1.98;49.96
8253;BME280;61313;48.396;10.008;2023-04-05T03:46:36;96512.22;;;2.03;49.37
8253;BME280;61313;48.396;10.008;2023-04-05T03:49:02;96514.81;;;2.03;49.00
8253;BME280;61313;48.396;10.008;2023-04-05T03:51:28;96518.31;;;1.97;49.49
8253;BME280;61313;48.396;10.008;2023-04-05T03:53:53;96512.25;;;2.01;48.79
8253;BME280;61313;48.396;10.008;2023-04-05T03:56:19;96511.38;;;2.04;49.38
8253;BME280;61313;48.396;10.008;2023-04-05T03:58:45;96519.13;;;2.02;49.66
8253;BME280;61313;48.396;10.008;2023-04-05T04:01:11;96509.78;;;1.87;49.95
8253;BME280;61313;48.396;10.008;2023-04-05T04:03:36;96508.03;;;1.86;49.55
8253;BME280;61313;48.396;10.008;2023-04-05T04:06:05;96517.63;;;1.75;49.87
8253;BME280;61313;48.396;10.008;2023-04-05T04:08:31;96516.75;;;1.76;49.80
8253;BME280;61313;48.396;10.008;2023-04-05T04:10:57;96513.22;;;1.89;49.58
8253;BME280;61313;48.396;10.008;2023-04-05T04:13:23;96514.91;;;1.89;49.25
8253;BME280;61313;48.396;10.008;2023-04-05T04:15:48;96510.75;;;1.69;50.15
8253;BME280;61313;48.396;10.008;2023-04-05T04:18:14;96509.03;;;1.70;49.59
8253;BME280;61313;48.396;10.008;2023-04-05T04:20:39;96508.97;;;1.79;49.77
8253;BME280;61313;48.396;10.008;2023-04-05T04:23:05;96515.91;;;1.76;49.25
8253;BME280;61313;48.396;10.008;2023-04-05T04:25:37;96509.81;;;1.84;49.66
8253;BME280;61313;48.396;10.008;2023-04-05T04:28:05;96510.63;;;1.88;49.37
8253;BME280;61313;48.396;10.008;2023-04-05T04:30:32;96513.25;;;1.83;49.68
8253;BME280;61313;48.396;10.008;2023-04-05T04:32:59;96511.63;;;1.70;49.85
8253;BME280;61313;48.396;10.008;2023-04-05T04:35:29;96513.25;;;1.85;49.93
8253;BME280;61313;48.396;10.008;2023-04-05T04:40:34;96511.63;;;1.72;49.89
8253;BME280;61313;48.396;10.008;2023-04-05T04:43:12;96515.13;;;1.63;50.42
8253;BME280;61313;48.396;10.008;2023-04-05T04:45:50;96517.59;;;1.78;50.11
8253;BME280;61313;48.396;10.008;2023-04-05T04:48:18;96512.47;;;1.75;49.77
8253;BME280;61313;48.396;10.008;2023-04-05T04:50:46;96517.69;;;1.66;50.52
8253;BME280;61313;48.396;10.008;2023-04-05T04:53:11;96526.31;;;1.65;50.47
8253;BME280;61313;48.396;10.008;2023-04-05T04:55:40;96526.19;;;1.82;50.35
8253;BME280;61313;48.396;10.008;2023-04-05T04:58:07;96521.09;;;1.74;50.64
8253;BME280;61313;48.396;10.008;2023-04-05T05:00:40;96522.81;;;1.72;50.33
8253;BME280;61313;48.396;10.008;2023-04-05T05:03:11;96526.28;;;1.71;50.20
8253;BME280;61313;48.396;10.008;2023-04-05T05:05:44;96526.19;;;1.82;50.00
8253;BME280;61313;48.396;10.008;2023-04-05T05:08:10;96525.38;;;1.77;50.26
8253;BME280;61313;48.396;10.008;2023-04-05T05:10:36;96527.09;;;1.78;50.05
8253;BME280;61313;48.396;10.008;2023-04-05T05:13:02;96525.38;;;1.78;50.34
8253;BME280;61313;48.396;10.008;2023-04-05T05:15:27;96516.72;;;1.82;49.76
8253;BME280;61313;48.396;10.008;2023-04-05T05:17:53;96523.47;;;2.02;49.85
8253;BME280;61313;48.396;10.008;2023-04-05T05:20:24;96521.03;;;1.80;50.37
8253;BME280;61313;48.396;10.008;2023-04-05T05:22:49;96526.09;;;1.96;49.99
8253;BME280;61313;48.396;10.008;2023-04-05T05:25:15;96528.56;;;2.11;49.30
8253;BME280;61313;48.396;10.008;2023-04-05T05:27:41;96528.56;;;2.09;49.41
8253;BME280;61313;48.396;10.008;2023-04-05T05:30:07;96527.63;;;2.20;49.23
8253;BME280;61313;48.396;10.008;2023-04-05T05:32:33;96528.41;;;2.29;48.84
8253;BME280;61313;48.396;10.008;2023-04-05T05:34:58;96525.91;;;2.17;48.76
8253;BME280;61313;48.396;10.008;2023-04-05T05:37:31;96527.75;;;2.04;49.35
8253;BME280;61313;48.396;10.008;2023-04-05T05:39:57;96522.50;;;2.14;49.44
8253;BME280;61313;48.396;10.008;2023-04-05T05:42:23;96517.28;;;2.99;47.28
8253;BME280;61313;48.396;10.008;2023-04-05T05:44:48;96518.78;;;4.30;44.30
8253;BME280;61313;48.396;10.008;2023-04-05T05:47:14;96509.50;;;5.50;40.44
8253;BME280;61313;48.396;10.008;2023-04-05T05:49:39;96504.66;;;6.78;37.70
8253;BME280;61313;48.396;10.008;2023-04-05T05:52:05;96502.19;;;7.05;37.45
8253;BME280;61313;48.396;10.008;2023-04-05T05:54:30;96495.75;;;7.16;37.04
8253;BME280;61313;48.396;10.008;2023-04-05T05:57:01;96495.44;;;7.57;35.00
8253;BME280;61313;48.396;10.008;2023-04-05T05:59:27;96500.41;;;7.93;35.06
8253;BME280;61313;48.396;10.008;2023-04-05T06:01:56;96492.69;;;8.43;33.88
8253;BME280;61313;48.396;10.008;2023-04-05T06:04:21;96497.09;;;8.14;34.27
8253;BME280;61313;48.396;10.008;2023-04-05T06:06:47;96503.09;;;8.44;33.28
8253;BME280;61313;48.396;10.008;2023-04-05T06:09:13;96493.56;;;8.68;33.33
8253;BME280;61313;48.396;10.008;2023-04-05T06:11:40;96492.81;;;8.40;33.51
8253;BME280;61313;48.396;10.008;2023-04-05T06:14:05;96495.25;;;9.87;31.76
8253;BME280;61313;48.396;10.008;2023-04-05T06:16:31;96498.25;;;9.78;30.82
8253;BME280;61313;48.396;10.008;2023-04-05T06:18:57;96505.06;;;8.88;32.37
8253;BME280;61313;48.396;10.008;2023-04-05T06:21:22;96506.47;;;8.98;32.89
8253;BME280;61313;48.396;10.008;2023-04-05T06:23:48;96514.16;;;8.78;33.69
8253;BME280;61313;48.396;10.008;2023-04-05T06:26:18;96511.94;;;8.40;33.44
8253;BME280;61313;48.396;10.008;2023-04-05T06:28:45;96514.59;;;8.65;52.42
8253;BME280;61313;48.396;10.008;2023-04-05T06:31:20;96521.31;;;8.47;34.96
8253;BME280;61313;48.396;10.008;2023-04-05T06:33:50;96522.13;;;8.75;33.65
8253;BME280;61313;48.396;10.008;2023-04-05T06:36:15;96518.28;;;9.10;32.74
8253;BME280;61313;48.396;10.008;2023-04-05T06:38:41;96524.44;;;8.84;33.72
8253;BME280;61313;48.396;10.008;2023-04-05T06:41:06;96521.84;;;8.57;33.09
8253;BME280;61313;48.396;10.008;2023-04-05T06:43:32;96535.03;;;7.99;34.79
8253;BME280;61313;48.396;10.008;2023-04-05T06:45:58;96530.47;;;7.50;35.08
8253;BME280;61313;48.396;10.008;2023-04-05T06:48:24;96523.38;;;7.53;35.28
8253;BME280;61313;48.396;10.008;2023-04-05T06:50:57;96524.50;;;7.74;34.72
8253;BME280;61313;48.396;10.008;2023-04-05T06:53:22;96525.41;;;8.01;34.74
8253;BME280;61313;48.396;10.008;2023-04-05T06:55:49;96526.19;;;8.58;33.34
8253;BME280;61313;48.396;10.008;2023-04-05T06:58:17;96519.66;;;8.17;34.78
8253;BME280;61313;48.396;10.008;2023-04-05T07:00:42;96513.31;;;8.52;33.09
8253;BME280;61313;48.396;10.008;2023-04-05T07:03:07;96516.59;;;7.48;35.46
8253;BME280;61313;48.396;10.008;2023-04-05T07:05:33;96521.72;;;8.34;34.67
8253;BME280;61313;48.396;10.008;2023-04-05T07:07:58;96520.44;;;8.20;34.03
8253;BME280;61313;48.396;10.008;2023-04-05T07:10:24;96525.72;;;8.72;33.20
8253;BME280;61313;48.396;10.008;2023-04-05T07:12:50;96519.88;;;8.89;33.19
8253;BME280;61313;48.396;10.008;2023-04-05T07:15:15;96522.22;;;8.72;32.23
8253;BME280;61313;48.396;10.008;2023-04-05T07:17:41;96517.06;;;9.42;32.43
8253;BME280;61313;48.396;10.008;2023-04-05T07:20:06;96518.66;;;8.99;32.51
8253;BME280;61313;48.396;10.008;2023-04-05T07:22:32;96523.34;;;8.64;33.47
8253;BME280;61313;48.396;10.008;2023-04-05T07:24:59;96535.53;;;8.65;33.90
8253;BME280;61313;48.396;10.008;2023-04-05T07:27:24;96530.56;;;9.31;33.56
8253;BME280;61313;48.396;10.008;2023-04-05T07:29:50;96524.69;;;8.51;33.07
8253;BME280;61313;48.396;10.008;2023-04-05T07:32:15;96532.56;;;8.50;33.76
8253;BME280;61313;48.396;10.008;2023-04-05T07:34:41;96531.59;;;7.99;35.20
8253;BME280;61313;48.396;10.008;2023-04-05T07:37:06;96531.72;;;7.66;35.24
8253;BME280;61313;48.396;10.008;2023-04-05T07:39:32;96541.00;;;6.51;38.09
8253;BME280;61313;48.396;10.008;2023-04-05T07:42:00;96532.22;;;6.88;38.00
8253;BME280;61313;48.396;10.008;2023-04-05T07:44:26;96533.56;;;7.33;36.28
8253;BME280;61313;48.396;10.008;2023-04-05T07:46:51;96531.91;;;7.88;35.28
8253;BME280;61313;48.396;10.008;2023-04-05T07:49:16;96528.09;;;7.42;37.06
8253;BME280;61313;48.396;10.008;2023-04-05T07:51:42;96535.72;;;8.59;34.60
8253;BME280;61313;48.396;10.008;2023-04-05T07:54:07;96539.84;;;6.94;37.30
8253;BME280;61313;48.396;10.008;2023-04-05T07:56:33;96538.91;;;7.58;36.94
8253;BME280;61313;48.396;10.008;2023-04-05T07:59:00;96537.75;;;7.68;36.46
8253;BME280;61313;48.396;10.008;2023-04-05T08:01:26;96531.78;;;8.73;34.20
8253;BME280;61313;48.396;10.008;2023-04-05T08:03:56;96529.41;;;7.85;36.51
8253;BME280;61313;48.396;10.008;2023-04-05T08:06:22;96536.84;;;7.10;37.73
8253;BME280;61313;48.396;10.008;2023-04-05T08:08:51;96528.75;;;7.77;37.53
8253;BME280;61313;48.396;10.008;2023-04-05T08:11:16;96537.47;;;8.60;35.98
8253;BME280;61313;48.396;10.008;2023-04-05T08:13:42;96536.81;;;8.25;35.75
8253;BME280;61313;48.396;10.008;2023-04-05T08:16:10;96535.69;;;6.87;37.87
8253;BME280;61313;48.396;10.008;2023-04-05T08:18:36;96538.91;;;7.88;37.49
8253;BME280;61313;48.396;10.008;2023-04-05T08:21:02;96530.91;;;7.64;38.06
8253;BME280;61313;48.396;10.008;2023-04-05T08:23:28;96539.66;;;7.63;37.89
8253;BME280;61313;48.396;10.008;2023-04-05T08:25:54;96538.84;;;7.30;37.92
8253;BME280;61313;48.396;10.008;2023-04-05T08:28:19;96533.63;;;7.89;37.42
8253;BME280;61313;48.396;10.008;2023-04-05T08:30:46;96529.97;;;9.00;35.29
8253;BME280;61313;48.396;10.008;2023-04-05T08:33:11;96530.56;;;10.01;33.52
8253;BME280;61313;48.396;10.008;2023-04-05T08:35:37;96523.47;;;10.89;31.96
8253;BME280;61313;48.396;10.008;2023-04-05T08:38:04;96525.56;;;8.77;34.78
8253;BME280;61313;48.396;10.008;2023-04-05T08:40:48;96532.88;;;7.26;38.27
8253;BME280;61313;48.396;10.008;2023-04-05T08:43:40;96519.81;;;9.39;35.05
8253;BME280;61313;48.396;10.008;2023-04-05T08:46:13;96521.66;;;9.83;33.17
8253;BME280;61313;48.396;10.008;2023-04-05T08:48:40;96535.16;;;8.51;34.07
8253;BME280;61313;48.396;10.008;2023-04-05T08:51:05;96530.41;;;8.62;34.29
8253;BME280;61313;48.396;10.008;2023-04-05T08:53:33;96531.28;;;9.11;34.50
8253;BME280;61313;48.396;10.008;2023-04-05T08:55:59;96524.56;;;10.63;32.18
8253;BME280;61313;48.396;10.008;2023-04-05T08:58:26;96515.56;;;11.29;30.38
8253;BME280;61313;48.396;10.008;2023-04-05T09:00:54;96520.47;;;10.35;30.88
8253;BME280;61313;48.396;10.008;2023-04-05T09:03:27;96522.69;;;9.33;33.31
8253;BME280;61313;48.396;10.008;2023-04-05T09:05:57;96520.06;;;10.01;32.67
8253;BME280;61313;48.396;10.008;2023-04-05T09:08:23;96522.44;;;10.51;31.24
8253;BME280;61313;48.396;10.008;2023-04-05T09:10:50;96533.03;;;9.36;32.54
8253;BME280;61313;48.396;10.008;2023-04-05T09:13:18;96535.41;;;8.68;34.22
8253;BME280;61313;48.396;10.008;2023-04-05T09:15:44;96532.69;;;8.46;34.43
8253;BME280;61313;48.396;10.008;2023-04-05T09:18:11;96534.72;;;9.37;33.37
8253;BME280;61313;48.396;10.008;2023-04-05T09:20:37;96533.66;;;9.19;32.75
8253;BME280;61313;48.396;10.008;2023-04-05T09:23:02;96537.38;;;8.88;32.90
8253;BME280;61313;48.396;10.008;2023-04-05T09:27:59;96532.22;;;9.58;30.58
8253;BME280;61313;48.396;10.008;2023-04-05T09:30:25;96531.56;;;9.04;31.55
8253;BME280;61313;48.396;10.008;2023-04-05T09:32:52;96528.25;;;9.71;31.49
8253;BME280;61313;48.396;10.008;2023-04-05T09:35:23;96525.22;;;9.58;30.77
8253;BME280;61313;48.396;10.008;2023-04-05T09:37:50;96526.22;;;9.78;30.28
8253;BME280;61313;48.396;10.008;2023-04-05T09:40:20;96537.75;;;8.76;32.67
8253;BME280;61313;48.396;10.008;2023-04-05T09:42:45;96523.97;;;10.34;29.81
8253;BME280;61313;48.396;10.008;2023-04-05T09:45:12;96523.50;;;10.47;30.08
8253;BME280;61313;48.396;10.008;2023-04-05T09:47:39;96525.31;;;10.23;29.73
8253;BME280;61313;48.396;10.008;2023-04-05T09:52:41;96519.50;;;11.39;28.56
8253;BME280;61313;48.396;10.008;2023-04-05T09:55:07;96531.44;;;9.32;28.43
8253;BME280;61313;48.396;10.008;2023-04-05T09:57:35;96528.75;;;9.57;28.52
8253;BME280;61313;48.396;10.008;2023-04-05T10:00:00;96531.72;;;8.99;29.08
8253;BME280;61313;48.396;10.008;2023-04-05T10:02:37;96528.00;;;9.30;28.24
8253;BME280;61313;48.396;10.008;2023-04-05T10:05:07;96523.22;;;10.32;28.09
8253;BME280;61313;48.396;10.008;2023-04-05T10:07:36;96526.00;;;10.50;27.72
8253;BME280;61313;48.396;10.008;2023-04-05T10:10:02;96525.81;;;9.88;29.06
8253;BME280;61313;48.396;10.008;2023-04-05T10:12:29;96520.22;;;9.98;30.22
8253;BME280;61313;48.396;10.008;2023-04-05T10:14:56;96513.41;;;10.99;28.21
8253;BME280;61313;48.396;10.008;2023-04-05T10:20:15;96513.53;;;10.55;28.75
8253;BME280;61313;48.396;10.008;2023-04-05T10:28:36;96518.91;;;10.30;28.60
8253;BME280;61313;48.396;10.008;2023-04-05T10:33:54;96507.91;;;11.43;26.41
8253;BME280;61313;48.396;10.008;2023-04-05T10:39:39;96491.88;;;10.91;27.85
8253;BME280;61313;48.396;10.008;2023-04-05T10:44:45;96499.69;;;10.51;27.84
8253;BME280;61313;48.396;10.008;2023-04-05T10:47:13;96501.84;;;10.62;28.17
8253;BME280;61313;48.396;10.008;2023-04-05T10:49:48;96497.44;;;11.04;27.36
8253;BME280;61313;48.396;10.008;2023-04-05T10:52:17;96490.66;;;11.37;26.47
8253;BME280;61313;48.396;10.008;2023-04-05T10:54:43;96489.09;;;11.71;26.86
8253;BME280;61313;48.396;10.008;2023-04-05T10:57:09;96494.97;;;10.59;27.54
8253;BME280;61313;48.396;10.008;2023-04-05T10:59:40;96493.56;;;10.51;27.89
8253;BME280;61313;48.396;10.008;2023-04-05T11:02:07;96483.28;;;10.87;27.32
8253;BME280;61313;48.396;10.008;2023-04-05T11:04:33;96489.63;;;10.41;27.44
8253;BME280;61313;48.396;10.008;2023-04-05T11:07:28;96497.22;;;10.04;28.28
8253;BME280;61313;48.396;10.008;2023-04-05T11:10:14;96505.06;;;9.13;29.19
8253;BME280;61313;48.396;10.008;2023-04-05T11:23:10;96476.16;;;10.06;28.05
8253;BME280;61313;48.396;10.008;2023-04-05T11:25:37;96485.38;;;9.26;29.72
8253;BME280;61313;48.396;10.008;2023-04-05T11:28:04;96480.88;;;9.30;30.11
8253;BME280;61313;48.396;10.008;2023-04-05T11:30:46;96480.34;;;9.44;29.22
8253;BME280;61313;48.396;10.008;2023-04-05T11:36:06;96481.50;;;10.25;28.81
8253;BME280;61313;48.396;10.008;2023-04-05T11:38:32;96477.31;;;9.99;28.21
8253;BME280;61313;48.396;10.008;2023-04-05T11:41:06;96462.75;;;10.35;27.39
8253;BME280;61313;48.396;10.008;2023-04-05T11:43:36;96465.31;;;10.37;27.35
8253;BME280;61313;48.396;10.008;2023-04-05T11:46:03;96465.72;;;10.26;27.26
8253;BME280;61313;48.396;10.008;2023-04-05T11:48:31;96466.19;;;9.93;27.69
8253;BME280;61313;48.396;10.008;2023-04-05T11:50:57;96463.25;;;9.79;28.41
8253;BME280;61313;48.396;10.008;2023-04-05T11:53:22;96461.97;;;10.54;27.66
8253;BME280;61313;48.396;10.008;2023-04-05T11:55:49;96457.34;;;9.96;27.43
8253;BME280;61313;48.396;10.008;2023-04-05T11:58:22;96469.13;;;9.64;28.59
8253;BME280;61313;48.396;10.008;2023-04-05T12:03:24;96461.56;;;9.09;28.29
8253;BME280;61313;48.396;10.008;2023-04-05T12:05:51;96451.03;;;9.34;27.84
8253;BME280;61313;48.396;10.008;2023-04-05T12:08:19;96446.75;;;9.77;28.40
8253;BME280;61313;48.396;10.008;2023-04-05T12:10:56;96443.47;;;9.50;28.36
8253;BME280;61313;48.396;10.008;2023-04-05T12:13:32;96439.47;;;10.06;28.46
8253;BME280;61313;48.396;10.008;2023-04-05T12:16:02;96447.34;;;9.16;28.71
8253;BME280;61313;48.396;10.008;2023-04-05T12:18:30;96451.94;;;8.36;30.13
8253;BME280;61313;48.396;10.008;2023-04-05T12:20:56;96446.63;;;8.64;30.03
8253;BME280;61313;48.396;10.008;2023-04-05T12:23:22;96444.34;;;8.55;30.08
8253;BME280;61313;48.396;10.008;2023-04-05T12:25:48;96447.16;;;8.97;29.36
8253;BME280;61313;48.396;10.008;2023-04-05T12:28:14;96435.69;;;8.53;28.65
8253;BME280;61313;48.396;10.008;2023-04-05T12:30:49;96431.38;;;9.24;28.71
8253;BME280;61313;48.396;10.008;2023-04-05T12:33:25;96426.94;;;9.48;29.07
8253;BME280;61313;48.396;10.008;2023-04-05T12:35:51;96431.25;;;9.27;28.12
8253;BME280;61313;48.396;10.008;2023-04-05T12:38:17;96431.69;;;9.38;27.73
8253;BME280;61313;48.396;10.008;2023-04-05T12:40:42;96443.72;;;8.72;29.59
8253;BME280;61313;48.396;10.008;2023-04-05T12:43:08;96442.28;;;8.38;30.26
8253;BME280;61313;48.396;10.008;2023-04-05T12:45:34;96431.09;;;9.08;29.76
8253;BME280;61313;48.396;10.008;2023-04-05T12:48:09;96432.38;;;8.73;29.37
8253;BME280;61313;48.396;10.008;2023-04-05T12:50:44;96436.50;;;8.28;29.83
8253;BME280;61313;48.396;10.008;2023-04-05T12:53:15;96421.00;;;8.74;30.00
8253;BME280;61313;48.396;10.008;2023-04-05T12:58:14;96418.28;;;9.24;28.89
8253;BME280;61313;48.396;10.008;2023-04-05T13:00:42;96421.59;;;9.27;29.55
8253;BME280;61313;48.396;10.008;2023-04-05T13:03:19;96417.47;;;9.22;29.92
8253;BME280;61313;48.396;10.008;2023-04-05T13:05:46;96414.69;;;9.48;29.80
8253;BME280;61313;48.396;10.008;2023-04-05T13:08:13;96412.88;;;9.28;29.52
8253;BME280;61313;48.396;10.008;2023-04-05T13:10:38;96405.25;;;9.44;29.41
8253;BME280;61313;48.396;10.008;2023-04-05T13:13:09;96407.31;;;9.58;29.22
8253;BME280;61313;48.396;10.008;2023-04-05T13:15:35;96406.09;;;8.25;30.89
8253;BME280;61313;48.396;10.008;2023-04-05T13:18:00;96398.50;;;8.93;30.06
8253;BME280;61313;48.396;10.008;2023-04-05T13:20:25;96393.66;;;9.28;30.48
8253;BME280;61313;48.396;10.008;2023-04-05T13:22:51;96397.69;;;9.81;28.88
8253;BME280;61313;48.396;10.008;2023-04-05T13:25:16;96391.09;;;9.92;28.64
8253;BME280;61313;48.396;10.008;2023-04-05T13:27:42;96391.09;;;9.70;29.25
8253;BME280;61313;48.396;10.008;2023-04-05T13:30:08;96376.88;;;10.18;27.97
8253;BME280;61313;48.396;10.008;2023-04-05T13:32:33;96380.50;;;10.36;28.40
8253;BME280;61313;48.396;10.008;2023-04-05T13:34:59;96383.38;;;10.10;28.40
8253;BME280;61313;48.396;10.008;2023-04-05T13:37:25;96381.91;;;10.03;27.77
8253;BME280;61313;48.396;10.008;2023-04-05T13:39:50;96371.81;;;9.51;28.29
8253;BME280;61313;48.396;10.008;2023-04-05T13:42:16;96380.50;;;8.60;29.36
8253;BME280;61313;48.396;10.008;2023-04-05T13:44:41;96373.81;;;9.44;28.50
8253;BME280;61313;48.396;10.008;2023-04-05T13:47:07;96371.00;;;9.49;28.17
8253;BME280;61313;48.396;10.008;2023-04-05T13:49:33;96369.66;;;9.61;28.46
8253;BME280;61313;48.396;10.008;2023-04-05T13:51:58;96364.28;;;9.86;27.85
8253;BME280;61313;48.396;10.008;2023-04-05T13:54:24;96368.94;;;10.20;27.92
8253;BME280;61313;48.396;10.008;2023-04-05T13:56:49;96352.78;;;10.31;27.36
8253;BME280;61313;48.396;10.008;2023-04-05T13:59:15;96348.88;;;9.78;27.69
8253;BME280;61313;48.396;10.008;2023-04-05T14:01:44;96348.09;;;9.54;28.47
8253;BME280;61313;48.396;10.008;2023-04-05T14:04:10;96344.28;;;9.83;28.65
8253;BME280;61313;48.396;10.008;2023-04-05T14:06:36;96349.31;;;9.01;28.74
8253;BME280;61313;48.396;10.008;2023-04-05T14:09:01;96356.25;;;9.02;29.43